createdAt,value
2022-08-01T00:00:20.562Z,11.15
2022-08-01T00:02:49.013Z,13.35
2022-08-01T00:05:17.533Z,14.35
2022-08-01T00:07:46.061Z,13.38
2022-08-01T00:10:16.512Z,10.70
2022-08-01T00:12:46.025Z,10.50
2022-08-01T00:15:16.986Z,9.00
2022-08-01T00:17:45.825Z,9.05
2022-08-01T00:20:15.722Z,9.55
2022-08-01T00:22:44.094Z,11.40
2022-08-01T00:25:12.476Z,9.95
2022-08-01T00:27:40.721Z,10.27
2022-08-01T00:30:11.240Z,10.18
2022-08-01T00:32:44.164Z,8.80
2022-08-01T00:35:13.059Z,8.60
2022-08-01T00:37:41.442Z,9.00
2022-08-01T00:40:09.987Z,9.07
2022-08-01T00:42:43.338Z,9.35
2022-08-01T00:45:12.787Z,9.60
2022-08-01T00:47:41.228Z,8.73
2022-08-01T00:50:10.122Z,9.55
2022-08-01T00:52:40.569Z,8.65
2022-08-01T00:55:09.890Z,9.25
2022-08-01T00:58:03.125Z,9.38
2022-08-01T01:00:32.911Z,10.63
2022-08-01T01:03:03.429Z,9.50
2022-08-01T01:05:37.673Z,12.43
2022-08-01T01:08:12.795Z,10.70
2022-08-01T01:11:26.883Z,11.73
2022-08-01T01:14:10.637Z,11.90
2022-08-01T01:16:42.379Z,13.95
2022-08-01T01:19:17.552Z,12.77
2022-08-01T01:22:18.948Z,11.25
2022-08-01T01:25:19.601Z,9.13
2022-08-01T01:28:03.947Z,10.30
2022-08-01T01:30:33.859Z,11.25
2022-08-01T01:33:05.034Z,11.60
2022-08-01T01:35:41.138Z,13.32
2022-08-01T01:38:30.659Z,16.00
2022-08-01T01:41:01.246Z,13.00
2022-08-01T01:43:33.481Z,11.02
2022-08-01T01:46:03.779Z,13.65
2022-08-01T01:48:33.719Z,11.95
2022-08-01T01:51:02.944Z,13.57
2022-08-01T01:53:35.480Z,29.13
2022-08-01T01:56:04.833Z,40.30
2022-08-01T01:58:35.796Z,38.83
2022-08-01T02:01:04.763Z,50.28
2022-08-01T02:03:45.121Z,52.42
2022-08-01T02:06:16.641Z,47.13
2022-08-01T02:08:46.747Z,55.78
2022-08-01T02:11:15.183Z,49.85
2022-08-01T02:13:44.546Z,18.67
2022-08-01T02:16:13.802Z,10.73
2022-08-01T02:18:43.192Z,16.40
2022-08-01T02:21:16.777Z,13.30
2022-08-01T02:23:46.020Z,13.40
2022-08-01T02:26:17.551Z,28.92
2022-08-01T02:28:52.367Z,15.98
2022-08-01T02:31:23.809Z,19.98
2022-08-01T02:33:58.574Z,23.17
2022-08-01T02:36:33.391Z,49.10
2022-08-01T02:39:10.332Z,40.35
2022-08-01T02:41:46.711Z,35.15
2022-08-01T02:44:24.664Z,37.83
2022-08-01T02:46:57.993Z,32.80
2022-08-01T02:49:29.139Z,65.85
2022-08-01T02:51:58.817Z,68.97
2022-08-01T02:54:35.553Z,47.90
2022-08-01T02:57:06.603Z,61.03
2022-08-01T02:59:37.810Z,56.22
2022-08-01T03:02:11.413Z,52.83
2022-08-01T03:04:43.058Z,43.88
2022-08-01T03:07:14.410Z,10.43
2022-08-01T03:09:46.102Z,12.17
2022-08-01T03:12:20.376Z,12.00
2022-08-01T03:14:50.981Z,12.70
2022-08-01T03:17:22.255Z,12.50
2022-08-01T03:19:51.413Z,12.38
2022-08-01T03:22:23.063Z,11.85
2022-08-01T03:24:54.309Z,12.37
2022-08-01T03:27:25.234Z,12.68
2022-08-01T03:29:57.147Z,13.70
2022-08-01T03:32:28.005Z,12.75
2022-08-01T03:34:56.246Z,13.32
2022-08-01T03:37:59.927Z,14.23
2022-08-01T03:40:37.309Z,13.65
2022-08-01T03:43:09.502Z,13.90
2022-08-01T03:48:17.687Z,12.50
2022-08-01T03:50:50.186Z,11.57
2022-08-01T03:53:26.425Z,11.35
2022-08-01T03:55:55.729Z,10.60
2022-08-01T03:58:24.095Z,11.75
2022-08-01T04:00:52.757Z,11.45
2022-08-01T04:03:21.566Z,11.52
2022-08-01T04:05:49.692Z,11.57
2022-08-01T04:08:17.987Z,12.20
2022-08-01T04:10:46.354Z,11.85
2022-08-01T04:13:18.731Z,12.63
2022-08-01T04:15:47.007Z,11.25
2022-08-01T04:18:15.073Z,12.23
2022-08-01T04:20:43.255Z,11.10
2022-08-01T04:23:13.453Z,11.05
2022-08-01T04:25:42.175Z,9.80
2022-08-01T04:28:13.829Z,11.55
2022-08-01T04:30:42.950Z,10.70
2022-08-01T04:33:13.136Z,11.43
2022-08-01T04:36:03.339Z,10.82
2022-08-01T04:38:35.740Z,10.95
2022-08-01T04:41:08.490Z,10.27
2022-08-01T04:43:44.056Z,11.23
2022-08-01T04:46:14.610Z,11.02
2022-08-01T04:48:43.789Z,10.02
2022-08-01T04:51:19.380Z,10.20
2022-08-01T04:53:47.805Z,10.05
2022-08-01T04:56:16.494Z,11.23
2022-08-01T04:58:45.335Z,12.43
2022-08-01T05:01:13.850Z,12.65
2022-08-01T05:03:42.161Z,12.43
2022-08-01T05:06:10.513Z,11.63
2022-08-01T05:08:38.628Z,12.20
2022-08-01T05:11:06.848Z,13.20
2022-08-01T05:13:35.168Z,12.98
2022-08-01T05:16:03.446Z,13.85
2022-08-01T05:18:31.527Z,16.42
2022-08-01T05:21:01.110Z,16.27
2022-08-01T05:23:42.200Z,14.63
2022-08-01T05:28:43.965Z,10.57
2022-08-01T05:31:12.435Z,11.05
2022-08-01T05:33:40.507Z,11.10
2022-08-01T05:36:08.883Z,10.93
2022-08-01T05:38:37.114Z,12.02
2022-08-01T05:41:05.393Z,10.05
2022-08-01T05:43:33.609Z,9.70
2022-08-01T05:46:01.876Z,10.10
2022-08-01T05:48:30.207Z,9.43
2022-08-01T05:50:58.972Z,9.75
2022-08-01T05:53:27.892Z,9.30
2022-08-01T05:55:56.478Z,10.30
2022-08-01T05:58:24.745Z,10.88
2022-08-01T06:00:52.951Z,12.05
2022-08-01T06:03:21.311Z,12.23
2022-08-01T06:05:49.563Z,12.10
2022-08-01T06:08:17.906Z,11.65
2022-08-01T06:10:46.120Z,11.20
2022-08-01T06:13:14.308Z,11.30
2022-08-01T06:15:42.556Z,11.60
2022-08-01T06:18:10.867Z,12.85
2022-08-01T06:20:39.099Z,11.73
2022-08-01T06:23:31.239Z,10.90
2022-08-01T06:25:56.141Z,11.45
2022-08-01T06:28:24.386Z,12.15
2022-08-01T06:30:52.480Z,11.25
2022-08-01T06:33:21.046Z,11.27
2022-08-01T06:35:49.271Z,11.15
2022-08-01T06:38:17.437Z,10.75
2022-08-01T06:40:45.775Z,10.85
2022-08-01T06:43:13.973Z,10.27
2022-08-01T06:45:42.599Z,11.02
2022-08-01T06:48:10.879Z,9.75
2022-08-01T06:50:39.306Z,11.10
2022-08-01T06:53:07.686Z,12.43
2022-08-01T06:55:35.983Z,12.05
2022-08-01T06:58:04.341Z,12.18
2022-08-01T07:00:32.596Z,11.77
2022-08-01T07:03:01.047Z,11.68
2022-08-01T07:05:29.442Z,15.32
2022-08-01T07:07:57.637Z,18.25
2022-08-01T07:10:25.943Z,17.98
2022-08-01T07:12:54.180Z,19.98
2022-08-01T07:15:22.445Z,19.30
2022-08-01T07:17:50.626Z,18.15
2022-08-01T07:20:18.888Z,17.90
2022-08-01T07:22:48.389Z,16.67
2022-08-01T07:25:16.930Z,16.02
2022-08-01T07:27:45.046Z,16.25
2022-08-01T07:30:13.742Z,14.85
2022-08-01T07:32:41.954Z,13.65
2022-08-01T07:35:10.605Z,13.48
2022-08-01T07:37:44.296Z,12.57
2022-08-01T07:40:18.747Z,13.45
2022-08-01T07:42:47.985Z,12.15
2022-08-01T07:45:16.638Z,12.13
2022-08-01T07:47:45.033Z,12.52
2022-08-01T07:50:13.353Z,12.27
2022-08-01T07:52:41.571Z,12.88
2022-08-01T07:55:22.688Z,13.95
2022-08-01T07:57:50.941Z,13.55
2022-08-01T08:00:19.777Z,13.85
2022-08-01T08:02:47.904Z,14.40
2022-08-01T08:05:16.153Z,13.57
2022-08-01T08:08:09.098Z,13.15
2022-08-01T08:10:37.589Z,14.45
2022-08-01T08:13:05.840Z,12.73
2022-08-01T08:15:34.209Z,13.85
2022-08-01T08:18:02.407Z,14.15
2022-08-01T08:20:30.715Z,14.85
2022-08-01T08:22:59.809Z,14.55
2022-08-01T08:25:28.302Z,14.63
2022-08-01T08:27:56.763Z,14.95
2022-08-01T08:30:25.079Z,16.90
2022-08-01T08:32:53.320Z,19.35
2022-08-01T08:35:40.101Z,19.58
2022-08-01T08:38:09.667Z,15.98
2022-08-01T08:40:39.962Z,13.93
2022-08-01T08:43:08.195Z,10.80
2022-08-01T08:45:58.714Z,9.45
2022-08-01T08:48:27.929Z,8.90
2022-08-01T08:50:59.337Z,8.80
2022-08-01T08:53:34.578Z,9.15
2022-08-01T08:56:05.271Z,8.38
2022-08-01T08:58:33.850Z,9.77
2022-08-01T09:01:02.147Z,10.55
2022-08-01T09:03:30.717Z,9.25
2022-08-01T09:05:59.258Z,9.63
2022-08-01T09:08:27.736Z,8.43
2022-08-01T09:10:56.630Z,9.55
2022-08-01T09:13:24.992Z,9.50
2022-08-01T09:15:55.006Z,9.65
2022-08-01T09:18:38.421Z,7.85
2022-08-01T09:21:21.849Z,13.05
2022-08-01T09:23:54.804Z,9.98
2022-08-01T09:26:32.116Z,6.78
2022-08-01T09:29:03.324Z,5.78
2022-08-01T09:31:47.471Z,5.70
2022-08-01T09:34:19.888Z,6.38
2022-08-01T09:36:49.678Z,7.15
2022-08-01T09:39:17.856Z,7.70
2022-08-01T09:41:46.121Z,7.82
2022-08-01T09:44:14.751Z,8.40
2022-08-01T09:46:55.976Z,6.90
2022-08-01T09:49:50.830Z,7.20
2022-08-01T09:52:25.593Z,7.32
2022-08-01T09:55:06.733Z,7.07
2022-08-01T09:57:35.197Z,5.82
2022-08-01T10:00:06.702Z,5.00
2022-08-01T10:02:42.211Z,6.47
2022-08-01T10:05:20.856Z,8.07
2022-08-01T10:08:07.733Z,8.75
2022-08-01T10:10:37.475Z,5.95
2022-08-01T10:13:06.328Z,5.43
2022-08-01T10:18:16.577Z,5.82
2022-08-01T10:20:56.333Z,6.05
2022-08-01T10:23:39.709Z,6.30
2022-08-01T10:26:11.598Z,5.40
2022-08-01T10:28:40.881Z,5.03
2022-08-01T10:31:12.671Z,5.28
2022-08-01T10:33:52.275Z,5.18
2022-08-01T10:36:23.470Z,5.47
2022-08-01T10:38:56.122Z,6.25
2022-08-01T10:41:25.667Z,5.10
2022-08-01T10:43:56.519Z,6.80
2022-08-01T10:46:25.226Z,7.40
2022-08-01T10:49:00.301Z,6.70
2022-08-01T10:51:52.026Z,6.28
2022-08-01T10:54:18.299Z,7.53
2022-08-01T10:56:48.925Z,7.72
2022-08-01T10:59:49.199Z,8.48
2022-08-01T11:02:21.038Z,8.02
2022-08-01T11:05:14.464Z,7.82
2022-08-01T11:07:53.535Z,6.70
2022-08-01T11:10:42.272Z,6.40
2022-08-01T11:13:12.295Z,7.10
2022-08-01T11:15:50.152Z,7.00
2022-08-01T11:18:32.226Z,7.25
2022-08-01T11:21:57.044Z,8.38
2022-08-01T11:23:52.820Z,7.43
2022-08-01T11:26:28.755Z,8.60
2022-08-01T11:29:21.507Z,7.15
2022-08-01T11:31:51.444Z,6.65
2022-08-01T11:34:19.807Z,6.60
2022-08-01T11:37:04.035Z,8.18
2022-08-01T11:39:38.256Z,6.97
2022-08-01T11:42:20.801Z,7.32
2022-08-01T11:44:52.777Z,5.95
2022-08-01T11:47:47.729Z,7.30
2022-08-01T11:50:32.247Z,8.18
2022-08-01T11:55:34.022Z,8.10
2022-08-01T11:58:07.593Z,8.55
2022-08-01T12:00:58.809Z,8.25
2022-08-01T12:03:33.513Z,7.25
2022-08-01T12:06:02.516Z,7.90
2022-08-01T12:08:33.948Z,7.75
2022-08-01T12:11:03.364Z,8.38
2022-08-01T12:13:43.042Z,7.72
2022-08-01T12:16:13.037Z,8.68
2022-08-01T12:18:43.455Z,8.98
2022-08-01T12:21:11.921Z,10.20
2022-08-01T12:23:40.351Z,9.40
2022-08-01T12:26:08.499Z,8.30
2022-08-01T12:28:56.887Z,7.10
2022-08-01T12:31:35.084Z,7.50
2022-08-01T12:34:30.751Z,7.75
2022-08-01T12:37:01.164Z,7.18
2022-08-01T12:39:34.514Z,7.03
2022-08-01T12:42:06.753Z,5.47
2022-08-01T12:47:05.185Z,7.25
2022-08-01T12:49:38.318Z,8.50
2022-08-01T12:52:11.544Z,8.18
2022-08-01T12:55:15.343Z,8.20
2022-08-01T12:57:46.415Z,11.52
2022-08-01T13:00:21.460Z,7.55
2022-08-01T13:02:51.295Z,7.75
2022-08-01T13:05:19.810Z,8.90
2022-08-01T13:07:50.589Z,6.72
2022-08-01T13:10:31.566Z,7.88
2022-08-01T13:13:00.745Z,7.68
2022-08-01T13:15:34.930Z,7.40
2022-08-01T13:18:27.343Z,7.93
2022-08-01T13:21:26.006Z,6.35
2022-08-01T13:24:08.839Z,6.25
2022-08-01T13:26:46.387Z,7.07
2022-08-01T13:29:33.833Z,6.90
2022-08-01T13:32:29.236Z,8.02
2022-08-01T13:35:07.375Z,6.65
2022-08-01T13:37:38.755Z,7.00
2022-08-01T13:40:11.972Z,7.63
2022-08-01T13:42:40.552Z,8.10
2022-08-01T13:45:14.720Z,8.98
2022-08-01T13:48:03.525Z,9.43
2022-08-01T13:50:33.632Z,8.32
2022-08-01T13:53:02.094Z,7.53
2022-08-01T13:55:34.661Z,7.82
2022-08-01T13:58:04.040Z,7.35
2022-08-01T14:00:32.727Z,8.45
2022-08-01T14:03:00.946Z,9.13
2022-08-01T14:05:29.479Z,8.85
2022-08-01T14:07:57.683Z,7.97
2022-08-01T14:10:26.745Z,6.35
2022-08-01T14:12:56.798Z,9.32
2022-08-01T14:15:36.858Z,6.88
2022-08-01T14:18:09.620Z,7.22
2022-08-01T14:20:39.183Z,7.10
2022-08-01T14:23:08.595Z,7.70
2022-08-01T14:26:03.095Z,7.72
2022-08-01T14:28:30.550Z,6.22
2022-08-01T14:31:00.143Z,10.68
2022-08-01T14:33:28.678Z,10.05
2022-08-01T14:36:28.744Z,7.78
2022-08-01T14:38:46.646Z,8.75
2022-08-01T14:41:16.484Z,12.85
2022-08-01T14:43:45.180Z,70.90
2022-08-01T14:46:13.813Z,17.27
2022-08-01T14:48:42.538Z,10.15
2022-08-01T14:51:11.761Z,6.85
2022-08-01T14:53:40.395Z,7.75
2022-08-01T14:56:15.099Z,7.03
2022-08-01T14:58:43.517Z,7.35
2022-08-01T15:01:12.062Z,6.93
2022-08-01T15:03:40.475Z,7.57
2022-08-01T15:06:09.019Z,8.48
2022-08-01T15:08:37.397Z,7.88
2022-08-01T15:11:05.676Z,8.15
2022-08-01T15:13:37.134Z,10.80
2022-08-01T15:16:08.866Z,7.32
2022-08-01T15:18:40.462Z,7.30
2022-08-01T15:21:11.583Z,7.30
2022-08-01T15:23:42.927Z,6.65
2022-08-01T15:26:11.280Z,8.40
2022-08-01T15:28:39.492Z,6.45
2022-08-01T15:31:12.465Z,9.73
2022-08-01T15:33:42.378Z,7.35
2022-08-01T15:36:12.409Z,8.93
2022-08-01T15:38:43.675Z,9.00
2022-08-01T15:41:12.061Z,9.65
2022-08-01T15:43:43.253Z,8.95
2022-08-01T15:46:13.286Z,10.07
2022-08-01T15:48:42.366Z,10.50
2022-08-01T15:51:10.687Z,7.43
2022-08-01T15:53:39.180Z,79.47
2022-08-01T15:56:07.620Z,23.25
2022-08-01T15:58:36.200Z,10.60
2022-08-01T16:01:04.629Z,9.70
2022-08-01T16:03:33.347Z,8.13
2022-08-01T16:06:01.606Z,8.35
2022-08-01T16:08:29.975Z,7.68
2022-08-01T16:10:58.291Z,9.52
2022-08-01T16:13:26.790Z,8.02
2022-08-01T16:15:55.058Z,8.07
2022-08-01T16:18:23.283Z,10.23
2022-08-01T16:20:51.833Z,11.45
2022-08-01T16:23:19.965Z,10.60
2022-08-01T16:25:48.202Z,10.57
2022-08-01T16:28:16.627Z,13.20
2022-08-01T16:30:48.808Z,10.68
2022-08-01T16:33:45.729Z,11.80
2022-08-01T16:36:16.649Z,12.02
2022-08-01T16:38:46.116Z,11.68
2022-08-01T16:41:19.351Z,10.07
2022-08-01T16:43:53.548Z,10.50
2022-08-01T16:46:26.305Z,10.15
2022-08-01T16:48:56.277Z,10.70
2022-08-01T16:51:24.610Z,10.40
2022-08-01T16:53:52.942Z,10.05
2022-08-01T16:56:21.287Z,11.48
2022-08-01T16:58:49.949Z,11.07
2022-08-01T17:02:00.608Z,29.02
2022-08-01T17:04:07.980Z,18.30
2022-08-01T17:06:36.197Z,15.90
2022-08-01T17:09:05.544Z,11.98
2022-08-01T17:11:34.804Z,9.73
2022-08-01T17:14:03.122Z,9.63
2022-08-01T17:16:31.634Z,9.98
2022-08-01T17:18:59.964Z,12.65
2022-08-01T17:21:28.388Z,11.90
2022-08-01T17:23:56.862Z,11.20
2022-08-01T17:26:25.359Z,11.50
2022-08-01T17:28:53.805Z,12.90
2022-08-01T17:31:21.976Z,12.10
2022-08-01T17:33:54.546Z,11.43
2022-08-01T17:36:23.807Z,12.35
2022-08-01T17:38:52.044Z,9.40
2022-08-01T17:41:20.389Z,14.43
2022-08-01T17:43:48.682Z,9.77
2022-08-01T17:46:17.450Z,10.13
2022-08-01T17:48:45.891Z,9.18
2022-08-01T17:51:22.165Z,12.07
2022-08-01T17:53:55.561Z,10.90
2022-08-01T17:56:27.848Z,9.73
2022-08-01T17:58:56.543Z,13.98
2022-08-01T18:01:26.914Z,14.65
2022-08-01T18:03:57.865Z,18.55
2022-08-01T18:06:27.151Z,19.00
2022-08-01T18:08:56.512Z,40.67
2022-08-01T18:11:27.897Z,43.67
2022-08-01T18:13:59.483Z,21.10
2022-08-01T18:16:28.999Z,26.58
2022-08-01T18:18:57.950Z,39.72
2022-08-01T18:21:26.462Z,22.23
2022-08-01T18:23:54.771Z,33.80
2022-08-01T18:26:23.251Z,91.55
2022-08-01T18:28:51.563Z,22.60
2022-08-01T18:31:19.857Z,27.45
2022-08-01T18:33:48.399Z,24.30
2022-08-01T18:36:32.230Z,31.67
2022-08-01T18:39:06.301Z,15.90
2022-08-01T18:41:39.217Z,60.28
2022-08-01T18:44:08.958Z,35.95
2022-08-01T18:46:39.298Z,20.00
2022-08-01T18:49:10.219Z,14.68
2022-08-01T18:51:44.365Z,14.80
2022-08-01T18:54:14.907Z,29.25
2022-08-01T18:56:45.031Z,24.83
2022-08-01T18:59:13.781Z,15.88
2022-08-01T19:01:42.158Z,31.95
2022-08-01T19:04:11.127Z,17.67
2022-08-01T19:06:40.216Z,16.88
2022-08-01T19:09:09.556Z,13.40
2022-08-01T19:11:38.079Z,14.93
2022-08-01T19:14:06.342Z,17.85
2022-08-01T19:16:34.716Z,19.55
2022-08-01T19:19:07.249Z,19.63
2022-08-01T19:21:36.007Z,22.02
2022-08-01T19:24:04.952Z,11.93
2022-08-01T19:26:35.187Z,13.98
2022-08-01T19:29:18.353Z,13.73
2022-08-01T19:31:49.191Z,13.93
2022-08-01T19:34:26.833Z,21.27
2022-08-01T19:36:59.043Z,21.17
2022-08-01T19:39:28.537Z,16.45
2022-08-01T19:41:58.345Z,17.52
2022-08-01T19:44:27.654Z,18.98
2022-08-01T19:46:56.033Z,20.25
2022-08-01T19:49:24.529Z,15.40
2022-08-01T19:51:56.609Z,15.65
2022-08-01T19:54:30.872Z,35.40
2022-08-01T19:57:02.346Z,13.40
2022-08-01T19:59:34.523Z,18.88
2022-08-01T20:04:31.293Z,36.42
2022-08-01T20:06:59.595Z,37.00
2022-08-01T20:09:28.365Z,24.08
2022-08-01T20:11:56.740Z,11.38
2022-08-01T20:14:26.618Z,10.48
2022-08-01T20:16:55.938Z,10.90
2022-08-01T20:19:25.462Z,10.98
2022-08-01T20:22:03.236Z,9.82
2022-08-01T20:24:41.261Z,8.98
2022-08-01T20:27:12.234Z,20.30
2022-08-01T20:29:41.445Z,17.77
2022-08-01T20:32:10.412Z,13.70
2022-08-01T20:34:40.039Z,11.27
2022-08-01T20:37:10.065Z,9.48
2022-08-01T20:39:43.266Z,9.23
2022-08-01T20:42:12.841Z,11.38
2022-08-01T20:44:42.029Z,13.75
2022-08-01T20:47:10.698Z,12.90
2022-08-01T20:49:39.512Z,10.82
2022-08-01T20:52:11.789Z,11.35
2022-08-01T20:54:44.428Z,11.82
2022-08-01T20:57:28.508Z,11.65
2022-08-01T21:00:07.104Z,11.85
2022-08-01T21:02:54.979Z,11.02
2022-08-01T21:05:32.756Z,10.32
2022-08-01T21:08:08.327Z,11.25
2022-08-01T21:10:40.890Z,9.75
2022-08-01T21:13:21.379Z,11.70
2022-08-01T21:16:21.929Z,9.88
2022-08-01T21:19:19.660Z,10.68
2022-08-01T21:21:51.605Z,10.60
2022-08-01T21:24:22.523Z,10.18
2022-08-01T21:26:52.450Z,11.20
2022-08-01T21:29:22.634Z,12.27
2022-08-01T21:31:52.550Z,12.50
2022-08-01T21:34:20.984Z,14.15
2022-08-01T21:36:49.208Z,16.70
2022-08-01T21:39:17.879Z,15.25
2022-08-01T21:42:05.317Z,13.65
2022-08-01T21:44:35.351Z,13.63
2022-08-01T21:47:03.990Z,12.20
2022-08-01T21:49:32.227Z,13.20
2022-08-01T21:52:13.778Z,14.43
2022-08-01T21:54:57.052Z,18.37
2022-08-01T21:57:31.359Z,17.33
2022-08-01T22:00:10.488Z,21.50
2022-08-01T22:03:12.584Z,23.42
2022-08-01T22:05:50.300Z,23.20
2022-08-01T22:08:33.952Z,21.42
2022-08-01T22:11:08.001Z,19.65
2022-08-01T22:13:36.920Z,20.65
2022-08-01T22:16:06.959Z,20.88
2022-08-01T22:18:37.069Z,20.35
2022-08-01T22:21:05.683Z,19.67
2022-08-01T22:23:38.210Z,19.80
2022-08-01T22:26:08.450Z,19.40
2022-08-01T22:28:37.873Z,20.25
2022-08-01T22:31:06.944Z,19.70
2022-08-01T22:33:39.812Z,19.42
2022-08-01T22:36:08.838Z,18.50
2022-08-01T22:38:37.021Z,17.83
2022-08-01T22:41:10.414Z,15.60
2022-08-01T22:44:02.762Z,13.05
2022-08-01T22:46:52.247Z,11.00
2022-08-01T22:49:27.219Z,10.57
2022-08-01T22:52:10.822Z,6.65
2022-08-01T22:54:41.513Z,5.00
2022-08-01T22:57:20.763Z,4.78
2022-08-01T23:00:00.597Z,4.78
2022-08-01T23:02:33.607Z,5.03
2022-08-01T23:05:12.311Z,5.38
2022-08-01T23:07:52.468Z,5.28
2022-08-01T23:10:25.904Z,5.10
2022-08-01T23:12:55.960Z,5.47
2022-08-01T23:15:24.908Z,5.20
2022-08-01T23:17:55.324Z,5.68
2022-08-01T23:20:24.148Z,6.97
2022-08-01T23:22:52.834Z,8.50
2022-08-01T23:25:21.290Z,8.52
2022-08-01T23:27:56.060Z,9.73
2022-08-01T23:30:36.003Z,9.98
2022-08-01T23:33:04.761Z,9.30
2022-08-01T23:35:38.671Z,9.30
2022-08-01T23:38:08.449Z,7.78
2022-08-01T23:40:37.276Z,8.70
2022-08-01T23:43:14.721Z,8.82
2022-08-01T23:46:03.308Z,8.13
2022-08-01T23:48:35.248Z,9.18
2022-08-01T23:51:04.427Z,7.78
2022-08-01T23:53:37.640Z,7.20
2022-08-01T23:58:34.741Z,7.15
